Irene V — J8PS4 — position and weather

sailwx.info

Track history (hours):
 
Tides and Currents Weather Stations Pressure Air Temp Water Temp Dewpoint Dewpoint Depression Visibility Wind Speed Wind Dir Waves Ship Positions

Irene V

Last reported at 2018-Feb-04 06:06 UTC. Time now 2018-Feb-19 14:24 UTC.
Position N 17°35' W 063°04'.
Warning: this ship's position is 15 days out of date.

Length 72 m; draft 3.2 m.

Type: Cargo ship. MMSI: 377924000.

Date/timePositionNaut miles runAvg speedWind from/ knotsBaromVisibWave heightAir tempDewpointWater temp
2018-Feb-04 06:06N 17°35' W 063°04'2 8.5
2018-Feb-04 05:50N 17°38' W 063°04'3 8.5
2018-Feb-04 05:27N 17°41' W 063°04'4 8.3
2018-Feb-04 04:58N 17°45' W 063°04'4 8.3
2018-Feb-04 04:27N 17°49' W 063°04'4 8.2
2018-Feb-04 04:00N 17°53' W 063°04'5 8.4
2018-Feb-04 03:27N 17°57' W 063°04'3 6.4
2018-Feb-04 02:58N 18°00' W 063°03'0 0.3
2018-Feb-04 02:17N 18°00' W 063°03'0 0.0
2018-Feb-04 01:58N 18°00' W 063°03'0 0.0
2018-Feb-04 01:30N 18°00' W 063°03'0 0.0
2018-Feb-04 01:00N 18°00' W 063°03'0 0.0
2018-Feb-04 00:27N 18°00' W 063°03'0 0.0
2018-Feb-03 23:50N 18°00' W 063°03'0 0.0
2018-Feb-03 23:21N 18°00' W 063°03'0 0.0
2018-Feb-03 23:00N 18°00' W 063°03'0 0.0
2018-Feb-03 22:24N 18°00' W 063°03'0 0.0
2018-Feb-03 21:58N 18°00' W 063°03'0 0.0
2018-Feb-03 21:29N 18°00' W 063°03'0 0.0
2018-Feb-03 20:53N 18°00' W 063°03'0 0.0
2018-Feb-03 20:27N 18°00' W 063°03'0 0.0
2018-Feb-03 19:58N 18°00' W 063°03'0 0.0
2018-Feb-03 18:12N 18°00' W 063°03'0 0.0
2018-Feb-03 17:46N 18°00' W 063°03'0 0.0
2018-Feb-03 17:24N 18°00' W 063°03'0 0.0
2018-Feb-03 16:54N 18°00' W 063°03'0 0.0
2018-Feb-03 15:50N 18°00' W 063°03'0 0.0
2018-Feb-03 15:20N 18°00' W 063°03'0 0.0
2018-Feb-03 15:00N 18°00' W 063°03'0 0.0
2018-Feb-03 14:30N 18°00' W 063°03'0 0.0
2018-Feb-03 13:56N 18°00' W 063°03'0 0.0
2018-Feb-03 13:29N 18°00' W 063°03'0 0.0
2018-Feb-03 12:25N 18°00' W 063°03'0 0.0
2018-Feb-03 11:55N 18°00' W 063°03'0 0.0
2018-Feb-03 11:21N 18°00' W 063°03'0 0.0
2018-Feb-03 10:46N 18°00' W 063°03'0 0.0
2018-Feb-03 10:30N 18°00' W 063°03'0 0.0
2018-Feb-03 09:58N 18°00' W 063°03'0 0.0
2018-Feb-03 09:31N 18°00' W 063°03'0 0.0
2018-Feb-03 09:00N 18°00' W 063°03'0 0.0
2018-Feb-03 08:23N 18°00' W 063°03'0 0.0
2018-Feb-03 07:53N 18°00' W 063°03'0 0.0
2018-Feb-03 06:29N 18°00' W 063°03'0 0.0
2018-Feb-03 06:00N 18°00' W 063°03'0 0.0
2018-Feb-03 03:34N 18°00' W 063°03'0 0.0
2018-Feb-03 03:26N 18°00' W 063°03'0 0.0
2018-Feb-03 01:55N 18°00' W 063°03'0 0.0
2018-Feb-03 01:06N 18°00' W 063°03'0 0.0
2018-Feb-03 00:56N 18°00' W 063°03'0 0.0
2018-Feb-03 00:26N 18°00' W 063°03'0 0.0
2018-Feb-02 23:59N 18°00' W 063°03'0 0.0
2018-Feb-02 23:27N 18°00' W 063°03'0 0.0
2018-Feb-02 22:55N 18°00' W 063°03'0 0.0
2018-Feb-02 22:27N 18°00' W 063°03'0 0.0
2018-Feb-02 21:54N 18°00' W 063°03'1 2.1
2018-Feb-02 21:28N 17°60' W 063°04'4 5.1
2018-Feb-02 20:39N 17°56' W 063°04'2 7.9
2018-Feb-02 20:23N 17°54' W 063°04'3 7.8
2018-Feb-02 19:59N 17°51' W 063°04'8 7.7
2018-Feb-02 18:56N 17°43' W 063°03'3 7.5
2018-Feb-02 18:28N 17°39' W 063°03'4 7.2
2018-Feb-02 17:58N 17°35' W 063°03'4 7.1
2018-Feb-02 17:26N 17°32' W 063°03'  
Track history (hours):
 
Tides and Currents Weather Stations Pressure Air Temp Water Temp Dewpoint Dewpoint Depression Visibility Wind Speed Wind Dir Waves Ship Positions

Irene V

Last reported at 2018-Feb-04 06:06 UTC. Time now 2018-Feb-19 14:24 UTC.
Position N 17°35' W 063°04'.
Warning: this ship's position is 15 days out of date.

Length 72 m; draft 3.2 m.

Type: Cargo ship. MMSI: 377924000.

Date/timePositionNaut miles runAvg speedWind from/ knotsBaromVisibWave heightAir tempDewpointWater temp
2018-Feb-04 06:06N 17°35' W 063°04'2 8.5
2018-Feb-04 05:50N 17°38' W 063°04'3 8.5
2018-Feb-04 05:27N 17°41' W 063°04'4 8.3
2018-Feb-04 04:58N 17°45' W 063°04'4 8.3
2018-Feb-04 04:27N 17°49' W 063°04'4 8.2
2018-Feb-04 04:00N 17°53' W 063°04'5 8.4
2018-Feb-04 03:27N 17°57' W 063°04'3 6.4
2018-Feb-04 02:58N 18°00' W 063°03'0 0.3
2018-Feb-04 02:17N 18°00' W 063°03'0 0.0
2018-Feb-04 01:58N 18°00' W 063°03'0 0.0
2018-Feb-04 01:30N 18°00' W 063°03'0 0.0
2018-Feb-04 01:00N 18°00' W 063°03'0 0.0
2018-Feb-04 00:27N 18°00' W 063°03'0 0.0
2018-Feb-03 23:50N 18°00' W 063°03'0 0.0
2018-Feb-03 23:21N 18°00' W 063°03'0 0.0
2018-Feb-03 23:00N 18°00' W 063°03'0 0.0
2018-Feb-03 22:24N 18°00' W 063°03'0 0.0
2018-Feb-03 21:58N 18°00' W 063°03'0 0.0
2018-Feb-03 21:29N 18°00' W 063°03'0 0.0
2018-Feb-03 20:53N 18°00' W 063°03'0 0.0
2018-Feb-03 20:27N 18°00' W 063°03'0 0.0
2018-Feb-03 19:58N 18°00' W 063°03'0 0.0
2018-Feb-03 18:12N 18°00' W 063°03'0 0.0
2018-Feb-03 17:46N 18°00' W 063°03'0 0.0
2018-Feb-03 17:24N 18°00' W 063°03'0 0.0
2018-Feb-03 16:54N 18°00' W 063°03'0 0.0
2018-Feb-03 15:50N 18°00' W 063°03'0 0.0
2018-Feb-03 15:20N 18°00' W 063°03'0 0.0
2018-Feb-03 15:00N 18°00' W 063°03'0 0.0
2018-Feb-03 14:30N 18°00' W 063°03'0 0.0
2018-Feb-03 13:56N 18°00' W 063°03'0 0.0
2018-Feb-03 13:29N 18°00' W 063°03'0 0.0
2018-Feb-03 12:25N 18°00' W 063°03'0 0.0
2018-Feb-03 11:55N 18°00' W 063°03'0 0.0
2018-Feb-03 11:21N 18°00' W 063°03'0 0.0
2018-Feb-03 10:46N 18°00' W 063°03'0 0.0
2018-Feb-03 10:30N 18°00' W 063°03'0 0.0
2018-Feb-03 09:58N 18°00' W 063°03'0 0.0
2018-Feb-03 09:31N 18°00' W 063°03'0 0.0
2018-Feb-03 09:00N 18°00' W 063°03'0 0.0
2018-Feb-03 08:23N 18°00' W 063°03'0 0.0
2018-Feb-03 07:53N 18°00' W 063°03'0 0.0
2018-Feb-03 06:29N 18°00' W 063°03'0 0.0
2018-Feb-03 06:00N 18°00' W 063°03'0 0.0
2018-Feb-03 03:34N 18°00' W 063°03'0 0.0
2018-Feb-03 03:26N 18°00' W 063°03'0 0.0
2018-Feb-03 01:55N 18°00' W 063°03'0 0.0
2018-Feb-03 01:06N 18°00' W 063°03'0 0.0
2018-Feb-03 00:56N 18°00' W 063°03'0 0.0
2018-Feb-03 00:26N 18°00' W 063°03'0 0.0
2018-Feb-02 23:59N 18°00' W 063°03'0 0.0
2018-Feb-02 23:27N 18°00' W 063°03'0 0.0
2018-Feb-02 22:55N 18°00' W 063°03'0 0.0
2018-Feb-02 22:27N 18°00' W 063°03'0 0.0
2018-Feb-02 21:54N 18°00' W 063°03'1 2.1
2018-Feb-02 21:28N 17°60' W 063°04'4 5.1
2018-Feb-02 20:39N 17°56' W 063°04'2 7.9
2018-Feb-02 20:23N 17°54' W 063°04'3 7.8
2018-Feb-02 19:59N 17°51' W 063°04'8 7.7
2018-Feb-02 18:56N 17°43' W 063°03'3 7.5
2018-Feb-02 18:28N 17°39' W 063°03'4 7.2
2018-Feb-02 17:58N 17°35' W 063°03'4 7.1
2018-Feb-02 17:26N 17°32' W 063°03'  

Dump ship's entire track history